sensor_id;sensor_type;location;lat;lon;timestamp;temperature;humidity
33955;DHT22;20233;50.804;7.126;2024-03-23T00:53:50;8.70;99.90
33955;DHT22;20233;50.804;7.126;2024-03-23T00:56:16;8.80;99.90
33955;DHT22;20233;50.804;7.126;2024-03-23T00:58:42;8.90;99.90
33955;DHT22;20233;50.804;7.126;2024-03-23T01:01:08;8.80;99.90
33955;DHT22;20233;50.804;7.126;2024-03-23T01:03:33;8.90;99.90
33955;DHT22;20233;50.804;7.126;2024-03-23T01:06:03;8.70;99.90
33955;DHT22;20233;50.804;7.126;2024-03-23T01:08:31;8.60;99.90
33955;DHT22;20233;50.804;7.126;2024-03-23T01:11:00;8.70;99.90
33955;DHT22;20233;50.804;7.126;2024-03-23T01:13:30;8.70;99.90
33955;DHT22;20233;50.804;7.126;2024-03-23T01:15:57;8.70;99.90
33955;DHT22;20233;50.804;7.126;2024-03-23T01:18:26;8.70;99.90
33955;DHT22;20233;50.804;7.126;2024-03-23T01:20:52;8.80;99.90
33955;DHT22;20233;50.804;7.126;2024-03-23T01:23:18;8.80;99.90
33955;DHT22;20233;50.804;7.126;2024-03-23T01:25:43;8.80;99.90
33955;DHT22;20233;50.804;7.126;2024-03-23T01:28:17;8.80;99.90
33955;DHT22;20233;50.804;7.126;2024-03-23T01:30:43;8.80;99.90
33955;DHT22;20233;50.804;7.126;2024-03-23T01:33:09;8.80;99.90
33955;DHT22;20233;50.804;7.126;2024-03-23T01:35:34;8.80;99.90
33955;DHT22;20233;50.804;7.126;2024-03-23T01:38:00;8.80;99.90
33955;DHT22;20233;50.804;7.126;2024-03-23T01:40:26;8.80;99.90
33955;DHT22;20233;50.804;7.126;2024-03-23T01:42:57;8.70;99.90
33955;DHT22;20233;50.804;7.126;2024-03-23T01:45:23;8.70;99.90
33955;DHT22;20233;50.804;7.126;2024-03-23T01:47:50;8.80;99.90
33955;DHT22;20233;50.804;7.126;2024-03-23T01:50:37;8.60;99.90
33955;DHT22;20233;50.804;7.126;2024-03-23T01:55:56;8.90;99.90
33955;DHT22;20233;50.804;7.126;2024-03-23T01:58:24;8.70;99.90
33955;DHT22;20233;50.804;7.126;2024-03-23T02:00:52;8.70;99.90
33955;DHT22;20233;50.804;7.126;2024-03-23T02:03:40;8.70;99.90
33955;DHT22;20233;50.804;7.126;2024-03-23T02:06:06;8.40;99.90
33955;DHT22;20233;50.804;7.126;2024-03-23T02:08:33;8.20;99.90
33955;DHT22;20233;50.804;7.126;2024-03-23T02:11:00;8.00;99.90
33955;DHT22;20233;50.804;7.126;2024-03-23T02:13:25;8.00;99.90
33955;DHT22;20233;50.804;7.126;2024-03-23T02:15:52;7.80;99.90
33955;DHT22;20233;50.804;7.126;2024-03-23T02:18:18;7.80;99.90
33955;DHT22;20233;50.804;7.126;2024-03-23T02:20:43;7.70;99.90
33955;DHT22;20233;50.804;7.126;2024-03-23T02:23:13;7.70;99.90
33955;DHT22;20233;50.804;7.126;2024-03-23T02:25:41;7.80;99.90
33955;DHT22;20233;50.804;7.126;2024-03-23T02:28:07;7.80;99.90
33955;DHT22;20233;50.804;7.126;2024-03-23T02:30:36;7.70;99.90
33955;DHT22;20233;50.804;7.126;2024-03-23T02:33:03;7.70;99.90
33955;DHT22;20233;50.804;7.126;2024-03-23T02:35:29;7.70;99.90
33955;DHT22;20233;50.804;7.126;2024-03-23T02:37:55;7.70;99.90
33955;DHT22;20233;50.804;7.126;2024-03-23T02:40:23;7.70;99.90
33955;DHT22;20233;50.804;7.126;2024-03-23T02:45:15;7.60;99.90
33955;DHT22;20233;50.804;7.126;2024-03-23T02:47:41;7.50;99.90
33955;DHT22;20233;50.804;7.126;2024-03-23T02:50:07;7.40;99.90
33955;DHT22;20233;50.804;7.126;2024-03-23T02:52:34;7.40;99.90
33955;DHT22;20233;50.804;7.126;2024-03-23T02:54:59;7.40;99.90
33955;DHT22;20233;50.804;7.126;2024-03-23T02:57:27;7.30;99.90
33955;DHT22;20233;50.804;7.126;2024-03-23T02:59:53;7.20;99.90
33955;DHT22;20233;50.804;7.126;2024-03-23T03:02:18;7.20;99.90
33955;DHT22;20233;50.804;7.126;2024-03-23T03:04:44;7.20;99.90
33955;DHT22;20233;50.804;7.126;2024-03-23T03:07:10;7.10;99.90
33955;DHT22;20233;50.804;7.126;2024-03-23T03:09:35;7.10;99.90
33955;DHT22;20233;50.804;7.126;2024-03-23T03:12:07;7.00;99.90
33955;DHT22;20233;50.804;7.126;2024-03-23T03:14:33;7.00;99.90
33955;DHT22;20233;50.804;7.126;2024-03-23T03:17:01;6.80;99.90
33955;DHT22;20233;50.804;7.126;2024-03-23T03:19:27;6.70;99.90
33955;DHT22;20233;50.804;7.126;2024-03-23T03:21:53;6.70;99.90
33955;DHT22;20233;50.804;7.126;2024-03-23T03:26:45;6.60;99.90
33955;DHT22;20233;50.804;7.126;2024-03-23T03:29:13;6.50;99.90
33955;DHT22;20233;50.804;7.126;2024-03-23T03:31:39;6.50;99.90
33955;DHT22;20233;50.804;7.126;2024-03-23T03:34:05;6.50;99.90
33955;DHT22;20233;50.804;7.126;2024-03-23T03:36:32;6.50;99.90
33955;DHT22;20233;50.804;7.126;2024-03-23T03:39:02;6.50;99.90
33955;DHT22;20233;50.804;7.126;2024-03-23T03:41:31;6.40;99.90
33955;DHT22;20233;50.804;7.126;2024-03-23T03:43:57;6.40;99.90
33955;DHT22;20233;50.804;7.126;2024-03-23T03:46:30;6.40;99.90
33955;DHT22;20233;50.804;7.126;2024-03-23T03:48:56;6.40;99.90
33955;DHT22;20233;50.804;7.126;2024-03-23T03:51:22;6.40;99.90
33955;DHT22;20233;50.804;7.126;2024-03-23T03:53:47;6.40;99.90
33955;DHT22;20233;50.804;7.126;2024-03-23T03:56:13;6.50;99.90
33955;DHT22;20233;50.804;7.126;2024-03-23T03:58:39;6.40;99.90
33955;DHT22;20233;50.804;7.126;2024-03-23T04:01:06;6.40;99.90
33955;DHT22;20233;50.804;7.126;2024-03-23T04:03:32;6.40;99.90
33955;DHT22;20233;50.804;7.126;2024-03-23T04:06:01;6.50;99.90
33955;DHT22;20233;50.804;7.126;2024-03-23T04:08:26;6.50;99.90
33955;DHT22;20233;50.804;7.126;2024-03-23T04:10:52;6.40;99.90
33955;DHT22;20233;50.804;7.126;2024-03-23T04:13:18;6.50;99.90
33955;DHT22;20233;50.804;7.126;2024-03-23T04:15:43;6.50;99.90
33955;DHT22;20233;50.804;7.126;2024-03-23T04:18:09;6.50;99.90
33955;DHT22;20233;50.804;7.126;2024-03-23T04:20:35;6.50;99.90
33955;DHT22;20233;50.804;7.126;2024-03-23T04:23:01;6.40;99.90
33955;DHT22;20233;50.804;7.126;2024-03-23T04:25:29;6.50;99.90
33955;DHT22;20233;50.804;7.126;2024-03-23T04:27:55;6.40;99.90
33955;DHT22;20233;50.804;7.126;2024-03-23T04:30:20;6.40;99.90
33955;DHT22;20233;50.804;7.126;2024-03-23T04:32:46;6.50;99.90
33955;DHT22;20233;50.804;7.126;2024-03-23T04:35:13;6.50;99.90
33955;DHT22;20233;50.804;7.126;2024-03-23T04:37:39;6.60;99.90
33955;DHT22;20233;50.804;7.126;2024-03-23T04:40:08;6.70;99.90
33955;DHT22;20233;50.804;7.126;2024-03-23T04:42:33;6.80;99.90
33955;DHT22;20233;50.804;7.126;2024-03-23T04:44:59;6.80;99.90
33955;DHT22;20233;50.804;7.126;2024-03-23T04:47:25;6.90;99.90
33955;DHT22;20233;50.804;7.126;2024-03-23T04:49:51;7.00;99.90
33955;DHT22;20233;50.804;7.126;2024-03-23T04:52:17;6.90;99.90
33955;DHT22;20233;50.804;7.126;2024-03-23T04:54:43;6.90;99.90
33955;DHT22;20233;50.804;7.126;2024-03-23T04:57:10;6.90;99.90
33955;DHT22;20233;50.804;7.126;2024-03-23T04:59:36;6.90;99.90
33955;DHT22;20233;50.804;7.126;2024-03-23T05:02:02;7.10;99.90
33955;DHT22;20233;50.804;7.126;2024-03-23T05:04:28;7.10;99.90
33955;DHT22;20233;50.804;7.126;2024-03-23T05:06:54;6.90;99.90
33955;DHT22;20233;50.804;7.126;2024-03-23T05:11:46;7.10;99.90
33955;DHT22;20233;50.804;7.126;2024-03-23T05:14:14;7.20;99.90
33955;DHT22;20233;50.804;7.126;2024-03-23T05:16:40;7.20;99.90
33955;DHT22;20233;50.804;7.126;2024-03-23T05:19:06;7.30;99.90
33955;DHT22;20233;50.804;7.126;2024-03-23T05:21:32;7.20;99.90
33955;DHT22;20233;50.804;7.126;2024-03-23T05:23:57;7.10;99.90
33955;DHT22;20233;50.804;7.126;2024-03-23T05:26:23;7.10;99.90
33955;DHT22;20233;50.804;7.126;2024-03-23T05:28:49;7.00;99.90
33955;DHT22;20233;50.804;7.126;2024-03-23T05:31:29;6.90;99.90
33955;DHT22;20233;50.804;7.126;2024-03-23T05:33:55;6.90;99.90
33955;DHT22;20233;50.804;7.126;2024-03-23T05:36:21;7.00;99.90
33955;DHT22;20233;50.804;7.126;2024-03-23T05:38:48;6.90;99.90
33955;DHT22;20233;50.804;7.126;2024-03-23T05:41:13;7.00;99.90
33955;DHT22;20233;50.804;7.126;2024-03-23T05:43:39;7.10;99.90
33955;DHT22;20233;50.804;7.126;2024-03-23T05:46:05;7.10;99.90
33955;DHT22;20233;50.804;7.126;2024-03-23T05:48:31;7.00;99.90
33955;DHT22;20233;50.804;7.126;2024-03-23T05:50:57;7.10;99.90
33955;DHT22;20233;50.804;7.126;2024-03-23T05:53:23;7.00;99.90
33955;DHT22;20233;50.804;7.126;2024-03-23T05:55:50;7.00;99.90
33955;DHT22;20233;50.804;7.126;2024-03-23T05:58:17;7.00;99.90
33955;DHT22;20233;50.804;7.126;2024-03-23T06:00:44;7.10;99.90
33955;DHT22;20233;50.804;7.126;2024-03-23T06:03:10;6.90;99.90
33955;DHT22;20233;50.804;7.126;2024-03-23T06:05:39;6.90;99.90
33955;DHT22;20233;50.804;7.126;2024-03-23T06:08:05;6.90;99.90
33955;DHT22;20233;50.804;7.126;2024-03-23T06:10:31;6.90;99.90
33955;DHT22;20233;50.804;7.126;2024-03-23T06:12:57;7.00;99.90
33955;DHT22;20233;50.804;7.126;2024-03-23T06:15:24;7.00;99.90
33955;DHT22;20233;50.804;7.126;2024-03-23T06:17:50;7.00;99.90
33955;DHT22;20233;50.804;7.126;2024-03-23T06:20:16;7.00;99.90
33955;DHT22;20233;50.804;7.126;2024-03-23T06:22:42;7.00;99.90
33955;DHT22;20233;50.804;7.126;2024-03-23T06:25:10;7.00;99.90
33955;DHT22;20233;50.804;7.126;2024-03-23T06:27:38;7.00;99.90
33955;DHT22;20233;50.804;7.126;2024-03-23T06:30:05;7.10;99.90
33955;DHT22;20233;50.804;7.126;2024-03-23T06:32:33;7.00;99.90
33955;DHT22;20233;50.804;7.126;2024-03-23T06:34:59;7.00;99.90
33955;DHT22;20233;50.804;7.126;2024-03-23T06:37:25;7.00;99.90
33955;DHT22;20233;50.804;7.126;2024-03-23T06:39:51;6.90;99.90
33955;DHT22;20233;50.804;7.126;2024-03-23T06:42:17;7.00;99.90
33955;DHT22;20233;50.804;7.126;2024-03-23T06:44:43;7.00;99.90
33955;DHT22;20233;50.804;7.126;2024-03-23T06:47:09;6.90;99.90
33955;DHT22;20233;50.804;7.126;2024-03-23T06:49:38;6.90;99.90
33955;DHT22;20233;50.804;7.126;2024-03-23T06:52:04;6.90;99.90
33955;DHT22;20233;50.804;7.126;2024-03-23T06:54:30;6.90;99.90
33955;DHT22;20233;50.804;7.126;2024-03-23T06:56:56;6.80;99.90
33955;DHT22;20233;50.804;7.126;2024-03-23T06:59:22;6.80;99.90
33955;DHT22;20233;50.804;7.126;2024-03-23T07:01:48;6.90;99.90
33955;DHT22;20233;50.804;7.126;2024-03-23T07:04:14;6.90;99.90
33955;DHT22;20233;50.804;7.126;2024-03-23T07:06:43;7.00;99.90
33955;DHT22;20233;50.804;7.126;2024-03-23T07:09:11;6.90;99.90
33955;DHT22;20233;50.804;7.126;2024-03-23T07:11:37;6.90;99.90
33955;DHT22;20233;50.804;7.126;2024-03-23T07:14:03;7.00;99.90
33955;DHT22;20233;50.804;7.126;2024-03-23T07:16:29;7.00;99.90
33955;DHT22;20233;50.804;7.126;2024-03-23T07:18:55;7.00;99.90
33955;DHT22;20233;50.804;7.126;2024-03-23T07:21:24;7.00;99.90
33955;DHT22;20233;50.804;7.126;2024-03-23T07:23:50;7.00;99.90
33955;DHT22;20233;50.804;7.126;2024-03-23T07:26:15;7.10;99.90
33955;DHT22;20233;50.804;7.126;2024-03-23T07:28:43;7.10;99.90
33955;DHT22;20233;50.804;7.126;2024-03-23T07:31:12;7.20;99.90
33955;DHT22;20233;50.804;7.126;2024-03-23T07:33:42;7.20;99.90
33955;DHT22;20233;50.804;7.126;2024-03-23T07:36:08;7.30;99.90
33955;DHT22;20233;50.804;7.126;2024-03-23T07:38:34;7.40;99.90
33955;DHT22;20233;50.804;7.126;2024-03-23T07:41:10;7.30;99.90
33955;DHT22;20233;50.804;7.126;2024-03-23T07:43:39;7.30;99.90
33955;DHT22;20233;50.804;7.126;2024-03-23T07:46:06;7.40;99.90
33955;DHT22;20233;50.804;7.126;2024-03-23T07:48:32;7.50;99.90
33955;DHT22;20233;50.804;7.126;2024-03-23T07:50:59;7.50;99.90
33955;DHT22;20233;50.804;7.126;2024-03-23T07:53:26;7.50;99.90
33955;DHT22;20233;50.804;7.126;2024-03-23T07:55:58;7.50;99.90
33955;DHT22;20233;50.804;7.126;2024-03-23T07:58:25;7.50;99.90
33955;DHT22;20233;50.804;7.126;2024-03-23T08:00:55;7.70;99.90
33955;DHT22;20233;50.804;7.126;2024-03-23T08:03:22;7.80;99.90
33955;DHT22;20233;50.804;7.126;2024-03-23T08:05:48;7.80;99.90
33955;DHT22;20233;50.804;7.126;2024-03-23T08:08:14;7.90;99.90
33955;DHT22;20233;50.804;7.126;2024-03-23T08:10:52;8.00;99.90
33955;DHT22;20233;50.804;7.126;2024-03-23T08:13:19;8.10;99.90
33955;DHT22;20233;50.804;7.126;2024-03-23T08:15:45;8.20;99.90
33955;DHT22;20233;50.804;7.126;2024-03-23T08:18:12;8.40;99.90
33955;DHT22;20233;50.804;7.126;2024-03-23T08:20:39;8.40;99.90
33955;DHT22;20233;50.804;7.126;2024-03-23T08:23:06;8.30;99.90
33955;DHT22;20233;50.804;7.126;2024-03-23T08:25:32;8.20;99.90
33955;DHT22;20233;50.804;7.126;2024-03-23T08:27:59;8.00;99.90
33955;DHT22;20233;50.804;7.126;2024-03-23T08:30:25;8.00;99.90
33955;DHT22;20233;50.804;7.126;2024-03-23T08:32:51;8.00;99.90
33955;DHT22;20233;50.804;7.126;2024-03-23T08:35:17;7.90;99.90
33955;DHT22;20233;50.804;7.126;2024-03-23T08:37:43;8.00;99.90
33955;DHT22;20233;50.804;7.126;2024-03-23T08:40:09;8.00;99.90
33955;DHT22;20233;50.804;7.126;2024-03-23T08:42:38;8.00;99.90
33955;DHT22;20233;50.804;7.126;2024-03-23T08:45:04;8.10;99.90
33955;DHT22;20233;50.804;7.126;2024-03-23T08:47:34;8.00;99.90
33955;DHT22;20233;50.804;7.126;2024-03-23T08:50:01;8.30;99.90
33955;DHT22;20233;50.804;7.126;2024-03-23T08:52:27;8.30;99.90
33955;DHT22;20233;50.804;7.126;2024-03-23T08:55:01;8.40;99.90
33955;DHT22;20233;50.804;7.126;2024-03-23T08:57:27;8.50;99.90
33955;DHT22;20233;50.804;7.126;2024-03-23T08:59:54;8.70;99.90
33955;DHT22;20233;50.804;7.126;2024-03-23T09:02:20;8.80;99.90
33955;DHT22;20233;50.804;7.126;2024-03-23T09:04:46;8.80;99.90
33955;DHT22;20233;50.804;7.126;2024-03-23T09:07:12;8.80;99.90
33955;DHT22;20233;50.804;7.126;2024-03-23T09:09:39;8.70;99.90
33955;DHT22;20233;50.804;7.126;2024-03-23T09:12:05;8.70;99.90
33955;DHT22;20233;50.804;7.126;2024-03-23T09:14:33;8.80;99.90
33955;DHT22;20233;50.804;7.126;2024-03-23T09:16:59;8.80;99.90
33955;DHT22;20233;50.804;7.126;2024-03-23T09:19:33;9.00;99.90
33955;DHT22;20233;50.804;7.126;2024-03-23T09:21:59;9.00;99.90
33955;DHT22;20233;50.804;7.126;2024-03-23T09:24:25;8.90;99.90
33955;DHT22;20233;50.804;7.126;2024-03-23T09:26:52;8.80;99.90
33955;DHT22;20233;50.804;7.126;2024-03-23T09:29:20;9.00;99.90
33955;DHT22;20233;50.804;7.126;2024-03-23T09:31:46;8.90;99.90
33955;DHT22;20233;50.804;7.126;2024-03-23T09:34:12;8.80;99.90
33955;DHT22;20233;50.804;7.126;2024-03-23T09:36:41;9.00;99.90
33955;DHT22;20233;50.804;7.126;2024-03-23T09:39:07;9.20;99.90
33955;DHT22;20233;50.804;7.126;2024-03-23T09:41:35;9.30;99.90
33955;DHT22;20233;50.804;7.126;2024-03-23T09:44:05;9.40;99.90
33955;DHT22;20233;50.804;7.126;2024-03-23T09:46:31;9.40;99.90
33955;DHT22;20233;50.804;7.126;2024-03-23T09:49:00;9.30;99.90
33955;DHT22;20233;50.804;7.126;2024-03-23T09:51:26;9.30;99.90
33955;DHT22;20233;50.804;7.126;2024-03-23T09:53:52;9.40;99.90
33955;DHT22;20233;50.804;7.126;2024-03-23T09:56:18;9.30;99.90
33955;DHT22;20233;50.804;7.126;2024-03-23T09:58:44;9.40;99.90
33955;DHT22;20233;50.804;7.126;2024-03-23T10:01:10;9.40;99.90
33955;DHT22;20233;50.804;7.126;2024-03-23T10:03:45;9.50;99.90
33955;DHT22;20233;50.804;7.126;2024-03-23T10:06:14;9.70;99.90
33955;DHT22;20233;50.804;7.126;2024-03-23T10:08:39;9.90;99.90
33955;DHT22;20233;50.804;7.126;2024-03-23T10:11:16;9.90;99.90
33955;DHT22;20233;50.804;7.126;2024-03-23T10:13:43;9.90;99.90
33955;DHT22;20233;50.804;7.126;2024-03-23T10:16:10;9.90;99.90
33955;DHT22;20233;50.804;7.126;2024-03-23T10:18:39;10.10;99.90
33955;DHT22;20233;50.804;7.126;2024-03-23T10:21:15;10.30;99.90
33955;DHT22;20233;50.804;7.126;2024-03-23T10:27:06;10.50;99.90
33955;DHT22;20233;50.804;7.126;2024-03-23T10:29:32;10.40;99.90
33955;DHT22;20233;50.804;7.126;2024-03-23T10:32:08;10.10;99.90
33955;DHT22;20233;50.804;7.126;2024-03-23T10:34:35;10.00;99.90
33955;DHT22;20233;50.804;7.126;2024-03-23T10:37:02;9.90;99.90
33955;DHT22;20233;50.804;7.126;2024-03-23T10:39:39;9.80;99.90
33955;DHT22;20233;50.804;7.126;2024-03-23T10:42:09;9.70;99.90
33955;DHT22;20233;50.804;7.126;2024-03-23T10:44:38;9.50;99.90
33955;DHT22;20233;50.804;7.126;2024-03-23T10:47:06;9.30;99.90
33955;DHT22;20233;50.804;7.126;2024-03-23T10:49:33;8.90;99.90
33955;DHT22;20233;50.804;7.126;2024-03-23T10:52:00;8.70;99.90
33955;DHT22;20233;50.804;7.126;2024-03-23T10:54:39;8.60;99.90
33955;DHT22;20233;50.804;7.126;2024-03-23T10:57:14;8.50;99.90
33955;DHT22;20233;50.804;7.126;2024-03-23T10:59:59;8.50;99.90
33955;DHT22;20233;50.804;7.126;2024-03-23T11:02:27;8.60;99.90
33955;DHT22;20233;50.804;7.126;2024-03-23T11:04:55;8.60;99.90
33955;DHT22;20233;50.804;7.126;2024-03-23T11:09:53;8.80;99.90
33955;DHT22;20233;50.804;7.126;2024-03-23T11:12:26;8.90;99.90
33955;DHT22;20233;50.804;7.126;2024-03-23T11:15:04;9.10;99.90
33955;DHT22;20233;50.804;7.126;2024-03-23T11:17:33;9.20;99.90
33955;DHT22;20233;50.804;7.126;2024-03-23T11:20:39;9.30;99.90
33955;DHT22;20233;50.804;7.126;2024-03-23T11:23:06;9.30;99.90
33955;DHT22;20233;50.804;7.126;2024-03-23T11:25:33;9.50;99.90
33955;DHT22;20233;50.804;7.126;2024-03-23T11:28:19;9.50;99.90
33955;DHT22;20233;50.804;7.126;2024-03-23T11:30:45;9.60;99.90
33955;DHT22;20233;50.804;7.126;2024-03-23T11:33:10;9.70;99.90
33955;DHT22;20233;50.804;7.126;2024-03-23T11:35:40;9.70;99.90
33955;DHT22;20233;50.804;7.126;2024-03-23T11:38:07;9.70;99.90
33955;DHT22;20233;50.804;7.126;2024-03-23T11:40:35;10.00;99.90
33955;DHT22;20233;50.804;7.126;2024-03-23T11:43:10;10.20;99.90
33955;DHT22;20233;50.804;7.126;2024-03-23T11:45:43;10.20;99.90
33955;DHT22;20233;50.804;7.126;2024-03-23T11:48:21;10.00;99.90
33955;DHT22;20233;50.804;7.126;2024-03-23T11:50:49;9.70;99.90
33955;DHT22;20233;50.804;7.126;2024-03-23T11:53:23;9.80;99.90
33955;DHT22;20233;50.804;7.126;2024-03-23T11:55:50;10.20;99.90
33955;DHT22;20233;50.804;7.126;2024-03-23T11:58:18;10.20;99.90
33955;DHT22;20233;50.804;7.126;2024-03-23T12:00:58;10.30;99.90
33955;DHT22;20233;50.804;7.126;2024-03-23T12:03:30;10.50;99.90
33955;DHT22;20233;50.804;7.126;2024-03-23T12:06:03;10.50;99.90
33955;DHT22;20233;50.804;7.126;2024-03-23T12:08:32;10.60;99.90
33955;DHT22;20233;50.804;7.126;2024-03-23T12:11:31;10.60;99.90
33955;DHT22;20233;50.804;7.126;2024-03-23T12:14:02;10.40;99.90
33955;DHT22;20233;50.804;7.126;2024-03-23T12:16:33;10.30;99.90
33955;DHT22;20233;50.804;7.126;2024-03-23T12:19:14;10.30;99.90
33955;DHT22;20233;50.804;7.126;2024-03-23T12:21:43;10.40;99.90
33955;DHT22;20233;50.804;7.126;2024-03-23T12:24:17;10.30;99.90
33955;DHT22;20233;50.804;7.126;2024-03-23T12:27:12;10.60;99.90
33955;DHT22;20233;50.804;7.126;2024-03-23T12:29:38;10.90;99.90
33955;DHT22;20233;50.804;7.126;2024-03-23T12:32:13;10.70;99.90
33955;DHT22;20233;50.804;7.126;2024-03-23T12:34:55;9.90;99.90
33955;DHT22;20233;50.804;7.126;2024-03-23T12:37:21;9.80;99.90
33955;DHT22;20233;50.804;7.126;2024-03-23T12:39:50;9.70;99.90
33955;DHT22;20233;50.804;7.126;2024-03-23T12:42:17;9.70;99.90
33955;DHT22;20233;50.804;7.126;2024-03-23T12:44:50;9.70;99.90
33955;DHT22;20233;50.804;7.126;2024-03-23T12:47:20;9.10;99.90
33955;DHT22;20233;50.804;7.126;2024-03-23T12:49:46;8.50;99.90
33955;DHT22;20233;50.804;7.126;2024-03-23T12:52:12;8.40;99.90
33955;DHT22;20233;50.804;7.126;2024-03-23T12:54:38;8.10;99.90
33955;DHT22;20233;50.804;7.126;2024-03-23T12:57:04;7.80;99.90
33955;DHT22;20233;50.804;7.126;2024-03-23T12:59:32;7.90;99.90
33955;DHT22;20233;50.804;7.126;2024-03-23T13:02:07;8.00;99.90
33955;DHT22;20233;50.804;7.126;2024-03-23T13:04:35;8.00;99.90
33955;DHT22;20233;50.804;7.126;2024-03-23T13:07:01;8.10;99.90
33955;DHT22;20233;50.804;7.126;2024-03-23T13:09:27;8.10;99.90
33955;DHT22;20233;50.804;7.126;2024-03-23T13:11:55;8.50;99.90
33955;DHT22;20233;50.804;7.126;2024-03-23T13:14:32;8.50;99.90
33955;DHT22;20233;50.804;7.126;2024-03-23T13:19:34;8.60;99.90
33955;DHT22;20233;50.804;7.126;2024-03-23T13:22:09;8.70;99.90
33955;DHT22;20233;50.804;7.126;2024-03-23T13:24:40;8.60;99.90
33955;DHT22;20233;50.804;7.126;2024-03-23T13:27:09;8.30;99.90
33955;DHT22;20233;50.804;7.126;2024-03-23T13:29:38;8.50;99.90
33955;DHT22;20233;50.804;7.126;2024-03-23T13:32:07;8.60;99.90
33955;DHT22;20233;50.804;7.126;2024-03-23T13:34:36;8.70;99.90
33955;DHT22;20233;50.804;7.126;2024-03-23T13:37:16;8.80;99.90
33955;DHT22;20233;50.804;7.126;2024-03-23T13:39:50;8.80;99.90
33955;DHT22;20233;50.804;7.126;2024-03-23T13:42:18;8.80;99.90
33955;DHT22;20233;50.804;7.126;2024-03-23T13:44:44;8.90;99.90
33955;DHT22;20233;50.804;7.126;2024-03-23T13:47:11;9.10;99.90
33955;DHT22;20233;50.804;7.126;2024-03-23T13:49:43;9.10;99.90
33955;DHT22;20233;50.804;7.126;2024-03-23T13:52:09;9.20;99.90
33955;DHT22;20233;50.804;7.126;2024-03-23T13:54:43;9.20;99.90
33955;DHT22;20233;50.804;7.126;2024-03-23T13:57:18;9.40;99.90
33955;DHT22;20233;50.804;7.126;2024-03-23T13:59:47;9.40;99.90
33955;DHT22;20233;50.804;7.126;2024-03-23T14:02:16;9.50;99.90
33955;DHT22;20233;50.804;7.126;2024-03-23T14:04:42;9.70;99.90
33955;DHT22;20233;50.804;7.126;2024-03-23T14:07:11;9.70;99.90
33955;DHT22;20233;50.804;7.126;2024-03-23T14:09:42;9.70;99.90
33955;DHT22;20233;50.804;7.126;2024-03-23T14:12:14;9.70;99.90
33955;DHT22;20233;50.804;7.126;2024-03-23T14:14:43;9.70;99.90
33955;DHT22;20233;50.804;7.126;2024-03-23T14:17:09;9.40;99.90
33955;DHT22;20233;50.804;7.126;2024-03-23T14:19:40;8.80;99.90
33955;DHT22;20233;50.804;7.126;2024-03-23T14:22:08;8.90;99.90
33955;DHT22;20233;50.804;7.126;2024-03-23T14:24:39;9.00;99.90
33955;DHT22;20233;50.804;7.126;2024-03-23T14:27:08;9.00;99.90
33955;DHT22;20233;50.804;7.126;2024-03-23T14:29:35;8.00;99.90
33955;DHT22;20233;50.804;7.126;2024-03-23T14:32:07;7.90;99.90
33955;DHT22;20233;50.804;7.126;2024-03-23T14:34:33;7.70;99.90
33955;DHT22;20233;50.804;7.126;2024-03-23T14:37:00;7.60;99.90
33955;DHT22;20233;50.804;7.126;2024-03-23T14:39:26;7.50;99.90
33955;DHT22;20233;50.804;7.126;2024-03-23T14:41:57;7.70;99.90
33955;DHT22;20233;50.804;7.126;2024-03-23T14:44:37;7.80;99.90
33955;DHT22;20233;50.804;7.126;2024-03-23T14:47:10;8.00;99.90
33955;DHT22;20233;50.804;7.126;2024-03-23T14:49:42;8.10;99.90
33955;DHT22;20233;50.804;7.126;2024-03-23T14:52:13;8.00;99.90
33955;DHT22;20233;50.804;7.126;2024-03-23T14:55:06;8.10;99.90
33955;DHT22;20233;50.804;7.126;2024-03-23T14:57:39;8.30;99.90
33955;DHT22;20233;50.804;7.126;2024-03-23T15:00:16;8.40;99.90
33955;DHT22;20233;50.804;7.126;2024-03-23T15:02:44;8.40;99.90
33955;DHT22;20233;50.804;7.126;2024-03-23T15:05:11;8.60;99.90
33955;DHT22;20233;50.804;7.126;2024-03-23T15:07:47;8.80;99.90
33955;DHT22;20233;50.804;7.126;2024-03-23T15:10:13;8.80;99.90
33955;DHT22;20233;50.804;7.126;2024-03-23T15:12:46;8.80;99.90
33955;DHT22;20233;50.804;7.126;2024-03-23T15:15:17;8.90;99.90
33955;DHT22;20233;50.804;7.126;2024-03-23T15:17:43;8.80;99.90
33955;DHT22;20233;50.804;7.126;2024-03-23T15:20:14;9.00;99.90
33955;DHT22;20233;50.804;7.126;2024-03-23T15:22:43;7.80;99.90
33955;DHT22;20233;50.804;7.126;2024-03-23T15:25:14;6.90;99.90
33955;DHT22;20233;50.804;7.126;2024-03-23T15:27:51;6.50;99.90
33955;DHT22;20233;50.804;7.126;2024-03-23T15:33:20;6.10;99.90
33955;DHT22;20233;50.804;7.126;2024-03-23T15:35:51;5.90;99.90
33955;DHT22;20233;50.804;7.126;2024-03-23T15:38:16;5.90;99.90
33955;DHT22;20233;50.804;7.126;2024-03-23T15:40:54;5.90;99.90
33955;DHT22;20233;50.804;7.126;2024-03-23T15:43:42;6.00;99.90
33955;DHT22;20233;50.804;7.126;2024-03-23T15:46:20;6.20;99.90
33955;DHT22;20233;50.804;7.126;2024-03-23T15:48:46;6.10;99.90
33955;DHT22;20233;50.804;7.126;2024-03-23T15:51:16;6.30;99.90
33955;DHT22;20233;50.804;7.126;2024-03-23T15:53:43;6.50;99.90
33955;DHT22;20233;50.804;7.126;2024-03-23T15:56:10;6.70;99.90
33955;DHT22;20233;50.804;7.126;2024-03-23T15:58:46;6.80;99.90
33955;DHT22;20233;50.804;7.126;2024-03-23T16:01:18;6.90;99.90
33955;DHT22;20233;50.804;7.126;2024-03-23T16:03:47;7.10;99.90
33955;DHT22;20233;50.804;7.126;2024-03-23T16:06:22;7.20;99.90
33955;DHT22;20233;50.804;7.126;2024-03-23T16:08:52;7.30;99.90
33955;DHT22;20233;50.804;7.126;2024-03-23T16:11:20;7.30;99.90
33955;DHT22;20233;50.804;7.126;2024-03-23T16:13:46;7.20;99.90
33955;DHT22;20233;50.804;7.126;2024-03-23T16:16:13;7.30;99.90
33955;DHT22;20233;50.804;7.126;2024-03-23T16:18:39;7.30;99.90
33955;DHT22;20233;50.804;7.126;2024-03-23T16:21:17;7.40;99.90
33955;DHT22;20233;50.804;7.126;2024-03-23T16:23:44;7.40;99.90
33955;DHT22;20233;50.804;7.126;2024-03-23T16:26:17;7.40;99.90
33955;DHT22;20233;50.804;7.126;2024-03-23T16:28:43;7.40;99.90
33955;DHT22;20233;50.804;7.126;2024-03-23T16:31:14;7.40;99.90
33955;DHT22;20233;50.804;7.126;2024-03-23T16:33:42;7.30;99.90
33955;DHT22;20233;50.804;7.126;2024-03-23T16:36:10;7.30;99.90
33955;DHT22;20233;50.804;7.126;2024-03-23T16:38:40;6.50;99.90
33955;DHT22;20233;50.804;7.126;2024-03-23T16:41:08;6.50;99.90
33955;DHT22;20233;50.804;7.126;2024-03-23T16:43:34;6.50;99.90
33955;DHT22;20233;50.804;7.126;2024-03-23T16:46:04;6.50;99.90
33955;DHT22;20233;50.804;7.126;2024-03-23T16:48:30;6.40;99.90
33955;DHT22;20233;50.804;7.126;2024-03-23T16:50:57;6.40;99.90
33955;DHT22;20233;50.804;7.126;2024-03-23T16:53:23;6.40;99.90
33955;DHT22;20233;50.804;7.126;2024-03-23T16:56:01;6.30;99.90
33955;DHT22;20233;50.804;7.126;2024-03-23T16:58:28;6.50;99.90
33955;DHT22;20233;50.804;7.126;2024-03-23T17:01:05;6.60;99.90
33955;DHT22;20233;50.804;7.126;2024-03-23T17:03:36;6.50;99.90
33955;DHT22;20233;50.804;7.126;2024-03-23T17:06:05;6.40;99.90
33955;DHT22;20233;50.804;7.126;2024-03-23T17:08:32;6.60;99.90